sensor_id;sensor_type;location;lat;lon;timestamp;P1;durP1;ratioP1;P2;durP2;ratioP2
31680;SDS011;18281;51.364;9.566;2023-01-29T00:01:36;14.00;;;8.40;;
31680;SDS011;18281;51.364;9.566;2023-01-29T00:04:01;12.13;;;8.43;;
31680;SDS011;18281;51.364;9.566;2023-01-29T00:06:26;17.30;;;9.55;;
31680;SDS011;18281;51.364;9.566;2023-01-29T00:08:52;13.25;;;8.93;;
31680;SDS011;18281;51.364;9.566;2023-01-29T00:11:17;14.07;;;9.00;;
31680;SDS011;18281;51.364;9.566;2023-01-29T00:13:44;15.88;;;9.52;;
31680;SDS011;18281;51.364;9.566;2023-01-29T00:16:09;19.38;;;11.30;;
31680;SDS011;18281;51.364;9.566;2023-01-29T00:18:38;16.60;;;10.55;;
31680;SDS011;18281;51.364;9.566;2023-01-29T00:21:09;22.38;;;11.57;;
31680;SDS011;18281;51.364;9.566;2023-01-29T00:23:35;28.25;;;13.73;;
31680;SDS011;18281;51.364;9.566;2023-01-29T00:26:01;31.15;;;15.77;;
31680;SDS011;18281;51.364;9.566;2023-01-29T00:28:26;33.92;;;15.60;;
31680;SDS011;18281;51.364;9.566;2023-01-29T00:30:52;33.35;;;16.27;;
31680;SDS011;18281;51.364;9.566;2023-01-29T00:33:17;32.92;;;15.63;;
31680;SDS011;18281;51.364;9.566;2023-01-29T00:35:42;33.50;;;16.38;;
31680;SDS011;18281;51.364;9.566;2023-01-29T00:38:08;35.45;;;16.33;;
31680;SDS011;18281;51.364;9.566;2023-01-29T00:40:35;33.60;;;15.52;;
31680;SDS011;18281;51.364;9.566;2023-01-29T00:43:22;29.88;;;14.23;;
31680;SDS011;18281;51.364;9.566;2023-01-29T00:46:06;28.92;;;14.98;;
31680;SDS011;18281;51.364;9.566;2023-01-29T00:48:31;23.35;;;13.95;;
31680;SDS011;18281;51.364;9.566;2023-01-29T00:50:58;25.08;;;13.55;;
31680;SDS011;18281;51.364;9.566;2023-01-29T00:53:23;22.02;;;12.55;;
31680;SDS011;18281;51.364;9.566;2023-01-29T00:55:48;25.65;;;13.15;;
31680;SDS011;18281;51.364;9.566;2023-01-29T00:58:14;24.13;;;12.80;;
31680;SDS011;18281;51.364;9.566;2023-01-29T01:00:46;23.55;;;13.82;;
31680;SDS011;18281;51.364;9.566;2023-01-29T01:03:13;20.20;;;12.00;;
31680;SDS011;18281;51.364;9.566;2023-01-29T01:05:39;23.00;;;13.13;;
31680;SDS011;18281;51.364;9.566;2023-01-29T01:08:04;19.65;;;12.57;;
31680;SDS011;18281;51.364;9.566;2023-01-29T01:10:56;23.27;;;13.88;;
31680;SDS011;18281;51.364;9.566;2023-01-29T01:13:30;23.83;;;14.10;;
31680;SDS011;18281;51.364;9.566;2023-01-29T01:15:57;20.35;;;12.23;;
31680;SDS011;18281;51.364;9.566;2023-01-29T01:18:22;22.58;;;13.98;;
31680;SDS011;18281;51.364;9.566;2023-01-29T01:20:48;22.55;;;12.32;;
31680;SDS011;18281;51.364;9.566;2023-01-29T01:23:19;23.15;;;12.55;;
31680;SDS011;18281;51.364;9.566;2023-01-29T01:25:44;22.77;;;12.93;;
31680;SDS011;18281;51.364;9.566;2023-01-29T01:28:10;19.02;;;11.93;;
31680;SDS011;18281;51.364;9.566;2023-01-29T01:30:36;23.20;;;13.23;;
31680;SDS011;18281;51.364;9.566;2023-01-29T01:33:02;21.25;;;11.80;;
31680;SDS011;18281;51.364;9.566;2023-01-29T01:35:27;22.52;;;12.13;;
31680;SDS011;18281;51.364;9.566;2023-01-29T01:37:53;19.33;;;11.82;;
31680;SDS011;18281;51.364;9.566;2023-01-29T01:40:19;18.17;;;10.40;;
31680;SDS011;18281;51.364;9.566;2023-01-29T01:42:49;20.70;;;10.55;;
31680;SDS011;18281;51.364;9.566;2023-01-29T01:45:37;17.92;;;10.77;;
31680;SDS011;18281;51.364;9.566;2023-01-29T01:53:15;15.45;;;10.02;;
31680;SDS011;18281;51.364;9.566;2023-01-29T01:55:54;14.25;;;9.32;;
31680;SDS011;18281;51.364;9.566;2023-01-29T01:58:29;15.20;;;9.68;;
31680;SDS011;18281;51.364;9.566;2023-01-29T02:00:58;15.00;;;9.98;;
31680;SDS011;18281;51.364;9.566;2023-01-29T02:03:24;14.10;;;10.05;;
31680;SDS011;18281;51.364;9.566;2023-01-29T02:06:11;14.45;;;9.52;;
31680;SDS011;18281;51.364;9.566;2023-01-29T02:08:56;15.15;;;9.93;;
31680;SDS011;18281;51.364;9.566;2023-01-29T02:11:44;16.05;;;9.40;;
31680;SDS011;18281;51.364;9.566;2023-01-29T02:14:10;14.35;;;10.23;;
31680;SDS011;18281;51.364;9.566;2023-01-29T02:16:36;15.32;;;9.50;;
31680;SDS011;18281;51.364;9.566;2023-01-29T02:19:03;16.70;;;9.75;;
31680;SDS011;18281;51.364;9.566;2023-01-29T02:21:58;17.52;;;11.05;;
31680;SDS011;18281;51.364;9.566;2023-01-29T02:30:31;21.25;;;11.98;;
31680;SDS011;18281;51.364;9.566;2023-01-29T02:36:01;19.48;;;12.07;;
31680;SDS011;18281;51.364;9.566;2023-01-29T02:41:37;16.02;;;11.00;;
31680;SDS011;18281;51.364;9.566;2023-01-29T02:46:56;18.00;;;11.80;;
31680;SDS011;18281;51.364;9.566;2023-01-29T02:49:35;18.02;;;11.75;;
31680;SDS011;18281;51.364;9.566;2023-01-29T02:57:28;32.85;;;17.10;;
31680;SDS011;18281;51.364;9.566;2023-01-29T03:02:36;36.45;;;18.50;;
31680;SDS011;18281;51.364;9.566;2023-01-29T03:05:07;40.08;;;19.30;;
31680;SDS011;18281;51.364;9.566;2023-01-29T03:07:40;37.25;;;18.30;;
31680;SDS011;18281;51.364;9.566;2023-01-29T03:10:15;36.47;;;18.35;;
31680;SDS011;18281;51.364;9.566;2023-01-29T03:12:41;41.50;;;19.02;;
31680;SDS011;18281;51.364;9.566;2023-01-29T03:15:15;29.35;;;15.57;;
31680;SDS011;18281;51.364;9.566;2023-01-29T03:18:05;28.63;;;15.27;;
31680;SDS011;18281;51.364;9.566;2023-01-29T03:20:46;25.60;;;14.65;;
31680;SDS011;18281;51.364;9.566;2023-01-29T03:23:18;29.17;;;13.85;;
31680;SDS011;18281;51.364;9.566;2023-01-29T03:26:06;27.25;;;14.45;;
31680;SDS011;18281;51.364;9.566;2023-01-29T03:28:51;27.08;;;15.25;;
31680;SDS011;18281;51.364;9.566;2023-01-29T03:31:36;20.70;;;13.10;;
31680;SDS011;18281;51.364;9.566;2023-01-29T03:34:21;23.92;;;14.05;;
31680;SDS011;18281;51.364;9.566;2023-01-29T03:37:00;25.77;;;14.52;;
31680;SDS011;18281;51.364;9.566;2023-01-29T03:39:31;29.05;;;14.27;;
31680;SDS011;18281;51.364;9.566;2023-01-29T03:50:53;28.27;;;15.73;;
31680;SDS011;18281;51.364;9.566;2023-01-29T04:06:28;29.55;;;15.00;;
31680;SDS011;18281;51.364;9.566;2023-01-29T04:09:03;25.10;;;14.70;;
31680;SDS011;18281;51.364;9.566;2023-01-29T04:11:35;26.10;;;14.25;;
31680;SDS011;18281;51.364;9.566;2023-01-29T04:14:05;23.95;;;14.45;;
31680;SDS011;18281;51.364;9.566;2023-01-29T04:16:33;25.65;;;14.95;;
31680;SDS011;18281;51.364;9.566;2023-01-29T04:19:03;22.70;;;14.32;;
31680;SDS011;18281;51.364;9.566;2023-01-29T04:21:29;26.30;;;15.20;;
31680;SDS011;18281;51.364;9.566;2023-01-29T04:23:55;27.20;;;16.23;;
31680;SDS011;18281;51.364;9.566;2023-01-29T04:38:31;27.73;;;15.45;;
31680;SDS011;18281;51.364;9.566;2023-01-29T04:40:47;27.13;;;15.55;;
31680;SDS011;18281;51.364;9.566;2023-01-29T05:00:12;22.92;;;13.50;;
31680;SDS011;18281;51.364;9.566;2023-01-29T05:02:47;24.67;;;14.60;;
31680;SDS011;18281;51.364;9.566;2023-01-29T05:05:13;23.50;;;14.27;;
31680;SDS011;18281;51.364;9.566;2023-01-29T05:07:43;24.00;;;13.77;;
31680;SDS011;18281;51.364;9.566;2023-01-29T05:10:10;23.73;;;14.07;;
31680;SDS011;18281;51.364;9.566;2023-01-29T05:12:39;22.38;;;14.07;;
31680;SDS011;18281;51.364;9.566;2023-01-29T05:15:08;22.67;;;14.07;;
31680;SDS011;18281;51.364;9.566;2023-01-29T05:17:38;21.40;;;13.65;;
31680;SDS011;18281;51.364;9.566;2023-01-29T05:20:03;24.73;;;14.07;;
31680;SDS011;18281;51.364;9.566;2023-01-29T05:22:30;22.58;;;13.82;;
31680;SDS011;18281;51.364;9.566;2023-01-29T05:24:55;21.85;;;13.45;;
31680;SDS011;18281;51.364;9.566;2023-01-29T05:27:26;21.67;;;13.23;;
31680;SDS011;18281;51.364;9.566;2023-01-29T05:30:17;20.08;;;13.30;;
31680;SDS011;18281;51.364;9.566;2023-01-29T05:32:42;22.20;;;13.80;;
31680;SDS011;18281;51.364;9.566;2023-01-29T05:35:08;25.13;;;13.68;;
31680;SDS011;18281;51.364;9.566;2023-01-29T05:37:33;22.95;;;13.80;;
31680;SDS011;18281;51.364;9.566;2023-01-29T05:39:58;21.42;;;13.60;;
31680;SDS011;18281;51.364;9.566;2023-01-29T05:42:24;26.92;;;13.40;;
31680;SDS011;18281;51.364;9.566;2023-01-29T05:44:49;22.77;;;13.27;;
31680;SDS011;18281;51.364;9.566;2023-01-29T05:47:18;24.00;;;14.15;;
31680;SDS011;18281;51.364;9.566;2023-01-29T05:49:44;25.27;;;13.85;;
31680;SDS011;18281;51.364;9.566;2023-01-29T05:52:09;19.83;;;13.00;;
31680;SDS011;18281;51.364;9.566;2023-01-29T05:54:34;25.13;;;13.10;;
31680;SDS011;18281;51.364;9.566;2023-01-29T05:57:00;21.50;;;13.65;;
31680;SDS011;18281;51.364;9.566;2023-01-29T05:59:25;18.92;;;12.40;;
31680;SDS011;18281;51.364;9.566;2023-01-29T06:01:51;22.80;;;12.85;;
31680;SDS011;18281;51.364;9.566;2023-01-29T06:04:16;20.58;;;13.13;;
31680;SDS011;18281;51.364;9.566;2023-01-29T06:06:41;20.58;;;12.27;;
31680;SDS011;18281;51.364;9.566;2023-01-29T06:09:08;18.88;;;12.20;;
31680;SDS011;18281;51.364;9.566;2023-01-29T06:11:34;20.60;;;12.95;;
31680;SDS011;18281;51.364;9.566;2023-01-29T06:14:00;20.48;;;11.88;;
31680;SDS011;18281;51.364;9.566;2023-01-29T06:16:25;18.30;;;11.98;;
31680;SDS011;18281;51.364;9.566;2023-01-29T06:18:50;19.73;;;12.27;;
31680;SDS011;18281;51.364;9.566;2023-01-29T06:21:16;20.90;;;12.68;;
31680;SDS011;18281;51.364;9.566;2023-01-29T06:23:41;22.17;;;13.45;;
31680;SDS011;18281;51.364;9.566;2023-01-29T06:26:10;18.88;;;11.85;;
31680;SDS011;18281;51.364;9.566;2023-01-29T06:28:36;20.25;;;12.75;;
31680;SDS011;18281;51.364;9.566;2023-01-29T06:31:02;18.30;;;12.30;;
31680;SDS011;18281;51.364;9.566;2023-01-29T06:33:29;19.27;;;11.68;;
31680;SDS011;18281;51.364;9.566;2023-01-29T06:35:55;20.25;;;12.38;;
31680;SDS011;18281;51.364;9.566;2023-01-29T06:38:22;21.40;;;12.70;;
31680;SDS011;18281;51.364;9.566;2023-01-29T06:40:48;18.85;;;11.95;;
31680;SDS011;18281;51.364;9.566;2023-01-29T06:43:13;19.20;;;11.88;;
31680;SDS011;18281;51.364;9.566;2023-01-29T06:45:44;18.23;;;12.00;;
31680;SDS011;18281;51.364;9.566;2023-01-29T06:48:11;17.60;;;11.13;;
31680;SDS011;18281;51.364;9.566;2023-01-29T06:50:36;18.55;;;11.15;;
31680;SDS011;18281;51.364;9.566;2023-01-29T06:53:01;21.92;;;12.57;;
31680;SDS011;18281;51.364;9.566;2023-01-29T06:55:27;19.77;;;11.20;;
31680;SDS011;18281;51.364;9.566;2023-01-29T06:57:52;17.83;;;10.07;;
31680;SDS011;18281;51.364;9.566;2023-01-29T07:00:17;20.40;;;11.77;;
31680;SDS011;18281;51.364;9.566;2023-01-29T07:02:44;17.13;;;10.63;;
31680;SDS011;18281;51.364;9.566;2023-01-29T07:05:13;17.98;;;10.68;;
31680;SDS011;18281;51.364;9.566;2023-01-29T07:07:38;19.17;;;11.07;;
31680;SDS011;18281;51.364;9.566;2023-01-29T07:10:03;17.70;;;10.02;;
31680;SDS011;18281;51.364;9.566;2023-01-29T07:12:29;16.80;;;10.07;;
31680;SDS011;18281;51.364;9.566;2023-01-29T07:14:54;20.13;;;11.27;;
31680;SDS011;18281;51.364;9.566;2023-01-29T07:17:20;18.73;;;11.30;;
31680;SDS011;18281;51.364;9.566;2023-01-29T07:19:45;21.73;;;12.27;;
31680;SDS011;18281;51.364;9.566;2023-01-29T07:22:10;19.38;;;11.55;;
31680;SDS011;18281;51.364;9.566;2023-01-29T07:24:36;17.30;;;10.98;;
31680;SDS011;18281;51.364;9.566;2023-01-29T07:27:01;21.85;;;12.25;;
31680;SDS011;18281;51.364;9.566;2023-01-29T07:29:26;20.10;;;12.45;;
31680;SDS011;18281;51.364;9.566;2023-01-29T07:31:51;16.80;;;11.02;;
31680;SDS011;18281;51.364;9.566;2023-01-29T07:34:17;16.42;;;11.20;;
31680;SDS011;18281;51.364;9.566;2023-01-29T07:36:42;18.27;;;12.10;;
31680;SDS011;18281;51.364;9.566;2023-01-29T07:39:07;24.42;;;11.85;;
31680;SDS011;18281;51.364;9.566;2023-01-29T07:41:33;16.80;;;10.70;;
31680;SDS011;18281;51.364;9.566;2023-01-29T07:43:58;20.33;;;11.65;;
31680;SDS011;18281;51.364;9.566;2023-01-29T07:46:23;17.95;;;11.50;;
31680;SDS011;18281;51.364;9.566;2023-01-29T07:48:49;20.20;;;12.23;;
31680;SDS011;18281;51.364;9.566;2023-01-29T07:51:14;16.48;;;10.60;;
31680;SDS011;18281;51.364;9.566;2023-01-29T07:53:41;17.73;;;11.27;;
31680;SDS011;18281;51.364;9.566;2023-01-29T07:56:08;16.27;;;11.05;;
31680;SDS011;18281;51.364;9.566;2023-01-29T07:58:33;16.35;;;11.18;;
31680;SDS011;18281;51.364;9.566;2023-01-29T08:00:59;15.60;;;10.38;;
31680;SDS011;18281;51.364;9.566;2023-01-29T08:03:24;16.35;;;11.15;;
31680;SDS011;18281;51.364;9.566;2023-01-29T08:05:49;17.75;;;11.60;;
31680;SDS011;18281;51.364;9.566;2023-01-29T08:08:15;18.40;;;11.13;;
31680;SDS011;18281;51.364;9.566;2023-01-29T08:10:40;16.42;;;10.75;;
31680;SDS011;18281;51.364;9.566;2023-01-29T08:13:06;18.00;;;11.20;;
31680;SDS011;18281;51.364;9.566;2023-01-29T08:15:32;15.98;;;10.75;;
31680;SDS011;18281;51.364;9.566;2023-01-29T08:17:59;16.17;;;10.30;;
31680;SDS011;18281;51.364;9.566;2023-01-29T08:20:25;15.73;;;10.38;;
31680;SDS011;18281;51.364;9.566;2023-01-29T08:22:57;19.75;;;10.77;;
31680;SDS011;18281;51.364;9.566;2023-01-29T08:25:30;19.50;;;11.05;;
31680;SDS011;18281;51.364;9.566;2023-01-29T08:27:56;14.30;;;10.35;;
31680;SDS011;18281;51.364;9.566;2023-01-29T08:30:23;14.50;;;9.60;;
31680;SDS011;18281;51.364;9.566;2023-01-29T08:32:49;16.83;;;9.95;;
31680;SDS011;18281;51.364;9.566;2023-01-29T08:35:15;14.45;;;10.15;;
31680;SDS011;18281;51.364;9.566;2023-01-29T08:37:40;17.63;;;10.65;;
31680;SDS011;18281;51.364;9.566;2023-01-29T08:40:06;16.00;;;9.70;;
31680;SDS011;18281;51.364;9.566;2023-01-29T08:42:33;16.67;;;10.70;;
31680;SDS011;18281;51.364;9.566;2023-01-29T08:44:58;13.85;;;9.77;;
31680;SDS011;18281;51.364;9.566;2023-01-29T08:47:24;16.20;;;9.80;;
31680;SDS011;18281;51.364;9.566;2023-01-29T08:49:49;15.32;;;9.88;;
31680;SDS011;18281;51.364;9.566;2023-01-29T08:52:14;13.35;;;9.65;;
31680;SDS011;18281;51.364;9.566;2023-01-29T08:54:40;13.45;;;9.90;;
31680;SDS011;18281;51.364;9.566;2023-01-29T08:57:05;13.65;;;9.50;;
31680;SDS011;18281;51.364;9.566;2023-01-29T08:59:31;15.52;;;9.77;;
31680;SDS011;18281;51.364;9.566;2023-01-29T09:01:56;15.95;;;10.10;;
31680;SDS011;18281;51.364;9.566;2023-01-29T09:04:21;15.95;;;9.82;;
31680;SDS011;18281;51.364;9.566;2023-01-29T09:06:47;15.30;;;9.75;;
31680;SDS011;18281;51.364;9.566;2023-01-29T09:09:12;14.02;;;9.57;;
31680;SDS011;18281;51.364;9.566;2023-01-29T09:11:38;15.40;;;9.68;;
31680;SDS011;18281;51.364;9.566;2023-01-29T09:14:04;15.48;;;9.98;;
31680;SDS011;18281;51.364;9.566;2023-01-29T09:16:30;16.95;;;9.80;;
31680;SDS011;18281;51.364;9.566;2023-01-29T09:18:55;13.93;;;9.45;;
31680;SDS011;18281;51.364;9.566;2023-01-29T09:21:20;15.48;;;9.82;;
31680;SDS011;18281;51.364;9.566;2023-01-29T09:23:46;15.63;;;9.70;;
31680;SDS011;18281;51.364;9.566;2023-01-29T09:26:11;15.82;;;10.25;;
31680;SDS011;18281;51.364;9.566;2023-01-29T09:28:36;14.35;;;9.65;;
31680;SDS011;18281;51.364;9.566;2023-01-29T09:31:02;12.38;;;8.93;;
31680;SDS011;18281;51.364;9.566;2023-01-29T09:33:27;14.68;;;9.02;;
31680;SDS011;18281;51.364;9.566;2023-01-29T09:35:53;17.13;;;10.23;;
31680;SDS011;18281;51.364;9.566;2023-01-29T09:38:18;14.95;;;9.98;;
31680;SDS011;18281;51.364;9.566;2023-01-29T09:43:38;16.90;;;10.00;;
31680;SDS011;18281;51.364;9.566;2023-01-29T09:46:05;20.90;;;11.38;;
31680;SDS011;18281;51.364;9.566;2023-01-29T09:48:39;18.15;;;11.45;;
31680;SDS011;18281;51.364;9.566;2023-01-29T09:51:07;17.85;;;11.27;;
31680;SDS011;18281;51.364;9.566;2023-01-29T09:53:49;17.27;;;10.50;;
31680;SDS011;18281;51.364;9.566;2023-01-29T09:56:24;18.08;;;10.52;;
31680;SDS011;18281;51.364;9.566;2023-01-29T09:58:52;20.48;;;12.23;;
31680;SDS011;18281;51.364;9.566;2023-01-29T10:15:22;18.73;;;12.30;;
31680;SDS011;18281;51.364;9.566;2023-01-29T10:18:06;18.20;;;11.57;;
31680;SDS011;18281;51.364;9.566;2023-01-29T10:20:53;17.63;;;11.60;;
31680;SDS011;18281;51.364;9.566;2023-01-29T10:23:32;19.17;;;11.80;;
31680;SDS011;18281;51.364;9.566;2023-01-29T10:26:00;19.27;;;11.88;;
31680;SDS011;18281;51.364;9.566;2023-01-29T10:28:31;17.08;;;11.32;;
31680;SDS011;18281;51.364;9.566;2023-01-29T10:31:12;18.02;;;11.40;;
31680;SDS011;18281;51.364;9.566;2023-01-29T10:34:05;16.75;;;10.52;;
31680;SDS011;18281;51.364;9.566;2023-01-29T10:36:37;17.35;;;11.50;;
31680;SDS011;18281;51.364;9.566;2023-01-29T10:39:14;19.25;;;12.15;;
31680;SDS011;18281;51.364;9.566;2023-01-29T10:44:38;18.98;;;12.32;;
31680;SDS011;18281;51.364;9.566;2023-01-29T10:47:33;19.38;;;11.63;;
31680;SDS011;18281;51.364;9.566;2023-01-29T10:53:07;17.58;;;11.38;;
31680;SDS011;18281;51.364;9.566;2023-01-29T11:01:37;20.30;;;11.85;;
31680;SDS011;18281;51.364;9.566;2023-01-29T11:04:05;21.33;;;12.13;;
31680;SDS011;18281;51.364;9.566;2023-01-29T11:06:34;19.33;;;12.13;;
31680;SDS011;18281;51.364;9.566;2023-01-29T11:12:00;18.33;;;10.85;;
31680;SDS011;18281;51.364;9.566;2023-01-29T11:14:33;17.58;;;10.68;;
31680;SDS011;18281;51.364;9.566;2023-01-29T11:17:15;16.58;;;11.32;;
31680;SDS011;18281;51.364;9.566;2023-01-29T11:19:43;17.55;;;11.15;;
31680;SDS011;18281;51.364;9.566;2023-01-29T11:22:14;15.75;;;10.75;;
31680;SDS011;18281;51.364;9.566;2023-01-29T11:24:40;16.35;;;10.88;;
31680;SDS011;18281;51.364;9.566;2023-01-29T11:27:13;18.40;;;11.45;;
31680;SDS011;18281;51.364;9.566;2023-01-29T11:29:40;16.33;;;10.93;;
31680;SDS011;18281;51.364;9.566;2023-01-29T11:32:12;19.13;;;11.95;;
31680;SDS011;18281;51.364;9.566;2023-01-29T11:34:55;16.73;;;11.13;;
31680;SDS011;18281;51.364;9.566;2023-01-29T11:37:22;19.05;;;12.65;;
31680;SDS011;18281;51.364;9.566;2023-01-29T11:39:55;19.27;;;11.30;;
31680;SDS011;18281;51.364;9.566;2023-01-29T11:42:21;18.63;;;11.88;;
31680;SDS011;18281;51.364;9.566;2023-01-29T11:44:47;18.58;;;12.32;;
31680;SDS011;18281;51.364;9.566;2023-01-29T11:49:38;20.40;;;12.18;;
31680;SDS011;18281;51.364;9.566;2023-01-29T11:52:08;23.25;;;12.73;;
31680;SDS011;18281;51.364;9.566;2023-01-29T11:54:42;18.00;;;11.88;;
31680;SDS011;18281;51.364;9.566;2023-01-29T11:57:18;22.25;;;13.40;;
31680;SDS011;18281;51.364;9.566;2023-01-29T11:59:49;20.52;;;12.68;;
31680;SDS011;18281;51.364;9.566;2023-01-29T12:02:18;19.20;;;12.50;;
31680;SDS011;18281;51.364;9.566;2023-01-29T12:04:47;23.08;;;13.07;;
31680;SDS011;18281;51.364;9.566;2023-01-29T12:07:14;20.42;;;13.48;;
31680;SDS011;18281;51.364;9.566;2023-01-29T12:09:47;21.92;;;12.93;;
31680;SDS011;18281;51.364;9.566;2023-01-29T12:15:09;20.30;;;12.70;;
31680;SDS011;18281;51.364;9.566;2023-01-29T12:17:40;19.08;;;13.25;;
31680;SDS011;18281;51.364;9.566;2023-01-29T12:20:14;20.48;;;12.55;;
31680;SDS011;18281;51.364;9.566;2023-01-29T12:25:48;20.38;;;12.52;;
31680;SDS011;18281;51.364;9.566;2023-01-29T12:28:28;19.10;;;12.68;;
31680;SDS011;18281;51.364;9.566;2023-01-29T12:36:20;21.27;;;13.00;;
31680;SDS011;18281;51.364;9.566;2023-01-29T12:38:51;22.30;;;13.38;;
31680;SDS011;18281;51.364;9.566;2023-01-29T12:41:27;21.33;;;13.80;;
31680;SDS011;18281;51.364;9.566;2023-01-29T12:44:00;23.70;;;13.60;;
31680;SDS011;18281;51.364;9.566;2023-01-29T12:46:32;22.75;;;13.13;;
31680;SDS011;18281;51.364;9.566;2023-01-29T12:49:03;21.77;;;12.73;;
31680;SDS011;18281;51.364;9.566;2023-01-29T12:51:39;26.02;;;13.25;;
31680;SDS011;18281;51.364;9.566;2023-01-29T12:54:17;25.35;;;14.02;;
31680;SDS011;18281;51.364;9.566;2023-01-29T12:56:48;21.52;;;14.38;;
31680;SDS011;18281;51.364;9.566;2023-01-29T12:59:38;27.52;;;14.65;;
31680;SDS011;18281;51.364;9.566;2023-01-29T13:04:55;21.85;;;12.93;;
31680;SDS011;18281;51.364;9.566;2023-01-29T13:07:29;19.95;;;13.77;;
31680;SDS011;18281;51.364;9.566;2023-01-29T13:10:04;25.58;;;14.43;;
31680;SDS011;18281;51.364;9.566;2023-01-29T13:12:36;24.40;;;14.73;;
31680;SDS011;18281;51.364;9.566;2023-01-29T13:15:46;23.05;;;14.10;;
31680;SDS011;18281;51.364;9.566;2023-01-29T13:18:28;22.80;;;14.55;;
31680;SDS011;18281;51.364;9.566;2023-01-29T13:20:59;20.13;;;13.05;;
31680;SDS011;18281;51.364;9.566;2023-01-29T13:26:02;25.20;;;15.52;;
31680;SDS011;18281;51.364;9.566;2023-01-29T13:28:29;28.80;;;14.85;;
31680;SDS011;18281;51.364;9.566;2023-01-29T13:34:14;26.50;;;14.95;;
31680;SDS011;18281;51.364;9.566;2023-01-29T13:39:51;28.83;;;15.25;;
31680;SDS011;18281;51.364;9.566;2023-01-29T13:45:02;26.75;;;14.98;;
31680;SDS011;18281;51.364;9.566;2023-01-29T13:47:32;25.73;;;15.40;;
31680;SDS011;18281;51.364;9.566;2023-01-29T13:50:07;28.55;;;16.15;;
31680;SDS011;18281;51.364;9.566;2023-01-29T13:52:43;30.07;;;16.43;;
31680;SDS011;18281;51.364;9.566;2023-01-29T14:02:45;32.35;;;15.80;;
31680;SDS011;18281;51.364;9.566;2023-01-29T14:10:33;26.90;;;16.73;;
31680;SDS011;18281;51.364;9.566;2023-01-29T14:15:35;28.10;;;16.35;;
31680;SDS011;18281;51.364;9.566;2023-01-29T14:20:35;29.98;;;17.92;;
31680;SDS011;18281;51.364;9.566;2023-01-29T14:23:04;27.83;;;16.10;;
31680;SDS011;18281;51.364;9.566;2023-01-29T14:25:34;24.70;;;16.00;;
31680;SDS011;18281;51.364;9.566;2023-01-29T14:28:03;27.40;;;17.27;;
31680;SDS011;18281;51.364;9.566;2023-01-29T14:30:37;26.63;;;16.63;;
31680;SDS011;18281;51.364;9.566;2023-01-29T14:33:05;25.45;;;15.07;;
31680;SDS011;18281;51.364;9.566;2023-01-29T14:35:48;24.45;;;14.55;;
31680;SDS011;18281;51.364;9.566;2023-01-29T14:38:15;26.00;;;15.32;;
31680;SDS011;18281;51.364;9.566;2023-01-29T14:40:41;27.42;;;15.45;;
31680;SDS011;18281;51.364;9.566;2023-01-29T14:43:16;26.33;;;14.13;;
31680;SDS011;18281;51.364;9.566;2023-01-29T14:45:45;22.85;;;14.65;;
31680;SDS011;18281;51.364;9.566;2023-01-29T14:51:09;24.77;;;14.82;;
31680;SDS011;18281;51.364;9.566;2023-01-29T14:53:47;23.40;;;14.25;;
31680;SDS011;18281;51.364;9.566;2023-01-29T14:59:12;26.52;;;14.30;;
31680;SDS011;18281;51.364;9.566;2023-01-29T15:01:50;26.33;;;14.60;;
31680;SDS011;18281;51.364;9.566;2023-01-29T15:04:39;23.95;;;14.23;;
31680;SDS011;18281;51.364;9.566;2023-01-29T15:09:37;24.13;;;14.05;;
31680;SDS011;18281;51.364;9.566;2023-01-29T15:12:15;26.42;;;14.13;;
31680;SDS011;18281;51.364;9.566;2023-01-29T15:15:24;21.80;;;13.02;;
31680;SDS011;18281;51.364;9.566;2023-01-29T15:20:27;22.02;;;13.05;;
31680;SDS011;18281;51.364;9.566;2023-01-29T15:22:55;18.98;;;12.48;;
31680;SDS011;18281;51.364;9.566;2023-01-29T15:25:21;22.85;;;13.65;;
31680;SDS011;18281;51.364;9.566;2023-01-29T15:27:47;27.65;;;13.95;;
31680;SDS011;18281;51.364;9.566;2023-01-29T15:30:14;21.75;;;13.35;;
31680;SDS011;18281;51.364;9.566;2023-01-29T15:32:42;23.02;;;13.82;;
31680;SDS011;18281;51.364;9.566;2023-01-29T15:35:09;23.23;;;13.10;;
31680;SDS011;18281;51.364;9.566;2023-01-29T15:37:42;24.23;;;13.93;;
31680;SDS011;18281;51.364;9.566;2023-01-29T15:40:21;21.35;;;13.13;;
31680;SDS011;18281;51.364;9.566;2023-01-29T15:42:46;19.35;;;12.75;;
31680;SDS011;18281;51.364;9.566;2023-01-29T15:45:31;20.63;;;12.93;;
31680;SDS011;18281;51.364;9.566;2023-01-29T15:48:02;25.88;;;11.80;;
31680;SDS011;18281;51.364;9.566;2023-01-29T15:50:38;23.35;;;13.38;;
31680;SDS011;18281;51.364;9.566;2023-01-29T15:53:06;25.33;;;14.55;;
31680;SDS011;18281;51.364;9.566;2023-01-29T15:55:44;22.17;;;14.13;;
31680;SDS011;18281;51.364;9.566;2023-01-29T15:58:13;21.75;;;14.13;;
31680;SDS011;18281;51.364;9.566;2023-01-29T16:00:46;21.35;;;13.05;;
31680;SDS011;18281;51.364;9.566;2023-01-29T16:03:18;22.08;;;13.27;;
31680;SDS011;18281;51.364;9.566;2023-01-29T16:05:46;28.02;;;15.43;;
31680;SDS011;18281;51.364;9.566;2023-01-29T16:08:12;36.83;;;18.00;;
31680;SDS011;18281;51.364;9.566;2023-01-29T16:10:39;38.17;;;18.08;;
31680;SDS011;18281;51.364;9.566;2023-01-29T16:13:08;32.50;;;18.58;;
31680;SDS011;18281;51.364;9.566;2023-01-29T16:15:52;28.90;;;17.73;;
31680;SDS011;18281;51.364;9.566;2023-01-29T16:18:24;32.33;;;17.88;;
31680;SDS011;18281;51.364;9.566;2023-01-29T16:20:55;33.17;;;18.88;;
31680;SDS011;18281;51.364;9.566;2023-01-29T16:23:24;31.02;;;17.98;;
31680;SDS011;18281;51.364;9.566;2023-01-29T16:25:52;28.95;;;17.17;;
31680;SDS011;18281;51.364;9.566;2023-01-29T16:28:20;28.50;;;17.25;;
31680;SDS011;18281;51.364;9.566;2023-01-29T16:30:46;29.92;;;18.73;;
31680;SDS011;18281;51.364;9.566;2023-01-29T16:33:12;29.90;;;16.98;;
31680;SDS011;18281;51.364;9.566;2023-01-29T16:35:41;33.25;;;17.63;;
31680;SDS011;18281;51.364;9.566;2023-01-29T16:38:26;34.95;;;18.95;;
31680;SDS011;18281;51.364;9.566;2023-01-29T16:41:05;34.65;;;17.75;;
31680;SDS011;18281;51.364;9.566;2023-01-29T16:43:44;31.50;;;17.63;;
31680;SDS011;18281;51.364;9.566;2023-01-29T16:48:44;31.75;;;19.33;;
31680;SDS011;18281;51.364;9.566;2023-01-29T16:51:12;32.40;;;18.50;;
31680;SDS011;18281;51.364;9.566;2023-01-29T16:53:38;34.80;;;19.13;;
31680;SDS011;18281;51.364;9.566;2023-01-29T16:56:04;30.98;;;18.92;;
31680;SDS011;18281;51.364;9.566;2023-01-29T16:58:32;34.00;;;19.63;;
31680;SDS011;18281;51.364;9.566;2023-01-29T17:01:02;34.00;;;19.02;;
31680;SDS011;18281;51.364;9.566;2023-01-29T17:03:32;31.55;;;19.42;;
31680;SDS011;18281;51.364;9.566;2023-01-29T17:06:07;30.23;;;18.05;;
31680;SDS011;18281;51.364;9.566;2023-01-29T17:08:36;33.22;;;18.25;;
31680;SDS011;18281;51.364;9.566;2023-01-29T17:11:02;32.72;;;18.35;;
31680;SDS011;18281;51.364;9.566;2023-01-29T17:13:32;30.45;;;18.70;;
31680;SDS011;18281;51.364;9.566;2023-01-29T17:16:01;32.28;;;18.40;;
31680;SDS011;18281;51.364;9.566;2023-01-29T17:18:37;30.65;;;18.52;;
31680;SDS011;18281;51.364;9.566;2023-01-29T17:21:03;33.28;;;18.50;;
31680;SDS011;18281;51.364;9.566;2023-01-29T17:23:29;33.28;;;18.92;;
31680;SDS011;18281;51.364;9.566;2023-01-29T17:25:54;33.90;;;19.05;;
31680;SDS011;18281;51.364;9.566;2023-01-29T17:28:19;36.80;;;19.60;;
31680;SDS011;18281;51.364;9.566;2023-01-29T17:30:45;30.35;;;19.25;;